createdAt,value
2019-06-07T00:00:32.186Z,19.10
2019-06-07T00:02:41.422Z,18.50
2019-06-07T00:05:12.724Z,18.20
2019-06-07T00:07:40.688Z,18.87
2019-06-07T00:10:15.460Z,22.13
2019-06-07T00:12:40.058Z,21.83
2019-06-07T00:15:11.740Z,22.13
2019-06-07T00:17:39.775Z,22.07
2019-06-07T00:20:13.448Z,23.00
2019-06-07T00:22:39.373Z,23.47
2019-06-07T00:25:12.088Z,23.63
2019-06-07T00:27:39.399Z,24.60
2019-06-07T00:30:32.587Z,24.87
2019-06-07T00:32:39.845Z,26.20
2019-06-07T00:35:09.107Z,27.67
2019-06-07T00:37:38.039Z,27.10
2019-06-07T00:40:17.388Z,26.87
2019-06-07T00:42:38.257Z,25.30
2019-06-07T00:45:07.502Z,24.77
2019-06-07T00:47:36.312Z,24.27
2019-06-07T00:50:06.250Z,24.77
2019-06-07T00:55:09.059Z,25.73
2019-06-07T00:57:38.223Z,25.37
2019-06-07T01:00:08.534Z,26.83
2019-06-07T01:02:37.539Z,26.80
2019-06-07T01:05:09.095Z,27.67
2019-06-07T01:07:37.664Z,23.00
2019-06-07T01:10:08.399Z,24.87
2019-06-07T01:12:37.094Z,23.67
2019-06-07T01:15:07.202Z,23.83
2019-06-07T01:17:50.135Z,23.47
2019-06-07T01:20:08.095Z,24.33
2019-06-07T01:22:37.060Z,24.20
2019-06-07T01:25:07.302Z,26.77
2019-06-07T01:27:36.035Z,24.23
2019-06-07T01:30:12.039Z,24.87
2019-06-07T01:32:41.116Z,25.70
2019-06-07T01:35:10.827Z,24.03
2019-06-07T01:37:39.427Z,23.23
2019-06-07T01:40:09.565Z,24.30
2019-06-07T01:42:38.139Z,24.80
2019-06-07T01:45:08.268Z,26.77
2019-06-07T01:47:37.002Z,27.17
2019-06-07T01:50:07.842Z,26.70
2019-06-07T01:52:36.761Z,26.27
2019-06-07T01:55:07.571Z,26.10
2019-06-07T01:57:47.513Z,25.97
2019-06-07T02:00:08.999Z,26.70
2019-06-07T02:02:37.671Z,26.13
2019-06-07T02:05:06.732Z,24.67
2019-06-07T02:07:36.259Z,25.97
2019-06-07T02:10:06.968Z,26.03
2019-06-07T02:12:42.899Z,25.87
2019-06-07T02:15:08.556Z,26.27
2019-06-07T02:17:37.546Z,26.90
2019-06-07T02:20:08.385Z,28.50
2019-06-07T02:22:37.022Z,27.20
2019-06-07T02:25:34.977Z,27.93
2019-06-07T02:27:37.059Z,25.57
2019-06-07T02:30:36.935Z,26.97
2019-06-07T02:32:37.299Z,25.40
2019-06-07T02:35:06.670Z,26.90
2019-06-07T02:37:37.011Z,25.30
2019-06-07T02:40:07.952Z,25.80
2019-06-07T02:42:42.001Z,25.47
2019-06-07T02:45:10.747Z,26.27
2019-06-07T02:47:40.187Z,24.67
2019-06-07T02:50:11.429Z,25.83
2019-06-07T02:52:41.600Z,26.70
2019-06-07T02:55:11.506Z,25.70
2019-06-07T02:57:42.326Z,26.30
2019-06-07T03:00:50.709Z,26.67
2019-06-07T03:02:43.679Z,25.17
2019-06-07T03:05:12.590Z,26.57
2019-06-07T03:07:45.179Z,26.13
2019-06-07T03:10:13.644Z,26.40
2019-06-07T03:12:45.091Z,27.07
2019-06-07T03:15:32.050Z,25.70
2019-06-07T03:17:49.010Z,26.03
2019-06-07T03:20:21.943Z,26.57
2019-06-07T03:22:51.490Z,25.40
2019-06-07T03:25:20.460Z,25.70
2019-06-07T03:27:50.611Z,25.87
2019-06-07T03:30:39.866Z,26.87
2019-06-07T03:32:50.020Z,25.00
2019-06-07T03:35:18.990Z,25.80
2019-06-07T03:37:47.634Z,25.60
2019-06-07T03:40:16.338Z,26.23
2019-06-07T03:42:45.244Z,27.03
2019-06-07T03:45:14.568Z,25.70
2019-06-07T03:47:43.539Z,25.43
2019-06-07T03:50:12.274Z,25.70
2019-06-07T03:52:41.716Z,25.70
2019-06-07T03:55:10.574Z,24.80
2019-06-07T03:58:29.269Z,25.93
2019-06-07T04:00:10.423Z,24.50
2019-06-07T04:02:41.888Z,27.43
2019-06-07T04:05:10.031Z,29.30
2019-06-07T04:07:43.744Z,28.67
2019-06-07T04:10:09.349Z,28.87
2019-06-07T04:12:41.214Z,26.77
2019-06-07T04:15:08.571Z,27.00
2019-06-07T04:17:44.597Z,27.03
2019-06-07T04:20:08.331Z,25.40
2019-06-07T04:22:42.056Z,24.20
2019-06-07T04:25:12.342Z,24.50
2019-06-07T04:27:41.435Z,24.67
2019-06-07T04:30:11.007Z,23.37
2019-06-07T04:32:44.664Z,23.47
2019-06-07T04:35:10.543Z,23.87
2019-06-07T04:37:41.552Z,23.43
2019-06-07T04:40:10.749Z,23.63
2019-06-07T04:42:44.924Z,23.97
2019-06-07T04:45:32.336Z,22.60
2019-06-07T04:47:44.466Z,22.40
2019-06-07T04:50:13.549Z,23.50
2019-06-07T04:52:45.166Z,22.83
2019-06-07T04:55:12.434Z,21.40
2019-06-07T04:57:43.235Z,21.50
2019-06-07T05:00:46.165Z,21.20
2019-06-07T05:02:43.416Z,21.20
2019-06-07T05:05:12.602Z,20.70
2019-06-07T05:07:45.972Z,21.00
2019-06-07T05:10:11.553Z,21.30
2019-06-07T05:12:44.001Z,20.17
2019-06-07T05:15:10.503Z,19.47
2019-06-07T05:17:40.623Z,19.47
2019-06-07T05:20:10.001Z,18.60
2019-06-07T05:22:42.058Z,18.00
2019-06-07T05:25:08.928Z,17.70
2019-06-07T05:27:39.224Z,15.17
2019-06-07T05:30:36.057Z,14.70
2019-06-07T05:32:44.022Z,15.77
2019-06-07T05:35:11.488Z,16.93
2019-06-07T05:37:41.818Z,17.63
2019-06-07T05:40:10.947Z,19.17
2019-06-07T05:42:43.298Z,18.23
2019-06-07T05:45:10.735Z,19.37
2019-06-07T05:47:44.423Z,17.67
2019-06-07T05:50:37.829Z,18.00
2019-06-07T05:52:45.064Z,19.87
2019-06-07T05:55:11.914Z,18.70
2019-06-07T05:57:45.778Z,17.43
2019-06-07T06:00:11.016Z,18.07
2019-06-07T06:03:00.225Z,18.47
2019-06-07T06:05:30.234Z,17.50
2019-06-07T06:07:45.235Z,17.60
2019-06-07T06:10:12.947Z,16.83
2019-06-07T06:12:46.185Z,16.40
2019-06-07T06:15:12.756Z,17.77
2019-06-07T06:17:45.426Z,16.83
2019-06-07T06:20:12.187Z,15.80
2019-06-07T06:22:47.282Z,16.27
2019-06-07T06:28:09.594Z,15.30
2019-06-07T06:30:13.652Z,15.10
2019-06-07T06:32:50.998Z,14.03
2019-06-07T06:35:13.643Z,14.60
2019-06-07T06:37:46.396Z,14.50
2019-06-07T06:40:15.899Z,13.83
2019-06-07T06:42:48.556Z,13.67
2019-06-07T06:45:16.019Z,13.53
2019-06-07T06:47:47.646Z,13.60
2019-06-07T06:50:16.686Z,14.17
2019-06-07T06:52:48.549Z,14.27
2019-06-07T06:55:16.724Z,13.50
2019-06-07T06:57:45.938Z,14.20
2019-06-07T07:00:16.663Z,14.30
2019-06-07T07:03:32.611Z,14.30
2019-06-07T07:05:16.475Z,15.43
2019-06-07T07:07:49.960Z,13.63
2019-06-07T07:10:21.022Z,11.60
2019-06-07T07:12:51.220Z,13.77
2019-06-07T07:15:19.935Z,13.53
2019-06-07T07:18:02.594Z,12.97
2019-06-07T07:20:19.182Z,12.07
2019-06-07T07:22:50.936Z,12.93
2019-06-07T07:25:18.142Z,11.90
2019-06-07T07:27:47.242Z,11.37
2019-06-07T07:30:37.270Z,11.80
2019-06-07T07:32:53.507Z,11.80
2019-06-07T07:35:21.135Z,10.90
2019-06-07T07:37:55.773Z,11.27
2019-06-07T07:40:56.950Z,11.07
2019-06-07T07:42:54.524Z,11.47
2019-06-07T07:45:21.235Z,11.10
2019-06-07T07:48:08.290Z,11.00
2019-06-07T07:50:20.771Z,10.57
2019-06-07T07:52:55.977Z,9.90
2019-06-07T07:55:19.764Z,10.43
2019-06-07T07:57:49.465Z,10.40
2019-06-07T08:00:50.411Z,9.17
2019-06-07T08:02:52.973Z,9.50
2019-06-07T08:05:28.966Z,8.97
2019-06-07T08:07:53.969Z,8.57
2019-06-07T08:10:22.388Z,9.20
2019-06-07T08:13:08.950Z,9.53
2019-06-07T08:15:21.415Z,8.83
2019-06-07T08:17:54.069Z,8.67
2019-06-07T08:20:20.970Z,7.63
2019-06-07T08:22:50.075Z,7.50
2019-06-07T08:25:19.127Z,8.00
2019-06-07T08:27:49.396Z,8.83
2019-06-07T08:32:51.625Z,8.63
2019-06-07T08:36:02.875Z,7.80
2019-06-07T08:38:29.722Z,8.00
2019-06-07T08:40:20.629Z,7.97
2019-06-07T08:43:10.811Z,8.70
2019-06-07T08:45:20.984Z,6.80
2019-06-07T08:47:56.537Z,6.77
2019-06-07T08:50:20.869Z,6.40
2019-06-07T08:52:54.733Z,6.13
2019-06-07T08:55:19.995Z,6.00
2019-06-07T08:57:48.603Z,6.00
2019-06-07T09:00:43.224Z,5.83
2019-06-07T09:02:49.657Z,5.53
2019-06-07T09:05:18.956Z,5.45
2019-06-07T09:07:47.923Z,5.78
2019-06-07T09:10:18.294Z,6.00
2019-06-07T09:12:46.935Z,5.53
2019-06-07T09:15:23.315Z,5.90
2019-06-07T09:18:30.496Z,5.90
2019-06-07T09:20:35.598Z,5.53
2019-06-07T09:22:47.802Z,5.05
2019-06-07T09:25:21.334Z,5.25
2019-06-07T09:27:47.837Z,4.78
2019-06-07T09:30:19.807Z,5.12
2019-06-07T09:32:48.480Z,5.30
2019-06-07T09:35:18.038Z,5.08
2019-06-07T09:40:27.302Z,4.60
2019-06-07T09:43:38.385Z,5.08
2019-06-07T09:45:20.647Z,4.90
2019-06-07T09:47:49.696Z,4.35
2019-06-07T09:50:18.522Z,4.12
2019-06-07T09:52:57.817Z,5.08
2019-06-07T09:55:24.180Z,4.28
2019-06-07T09:57:47.701Z,5.08
2019-06-07T10:02:47.775Z,4.40
2019-06-07T10:05:16.490Z,4.00
2019-06-07T10:07:59.986Z,3.45
2019-06-07T10:12:46.451Z,5.03
2019-06-07T10:15:15.455Z,4.17
2019-06-07T10:17:44.162Z,4.20
2019-06-07T10:20:13.670Z,4.03
2019-06-07T10:22:42.398Z,3.58
2019-06-07T10:25:11.213Z,3.80
2019-06-07T10:27:40.035Z,4.25
2019-06-07T10:30:10.254Z,4.15
2019-06-07T10:32:39.366Z,4.15
2019-06-07T10:35:11.319Z,3.50
2019-06-07T10:37:39.123Z,3.45
2019-06-07T10:40:09.281Z,3.12
2019-06-07T10:42:38.039Z,3.22
2019-06-07T10:45:08.218Z,3.58
2019-06-07T10:47:37.301Z,3.47
2019-06-07T10:50:08.091Z,3.90
2019-06-07T10:52:36.793Z,3.37
2019-06-07T10:55:10.547Z,3.20
2019-06-07T10:57:39.507Z,3.10
2019-06-07T11:00:11.491Z,2.95
2019-06-07T11:02:40.427Z,3.00
2019-06-07T11:05:10.337Z,3.30
2019-06-07T11:07:39.435Z,3.62
2019-06-07T11:10:14.775Z,3.30
2019-06-07T11:12:39.309Z,3.20
2019-06-07T11:15:11.007Z,3.27
2019-06-07T11:17:39.932Z,3.60
2019-06-07T11:20:10.357Z,3.00
2019-06-07T11:22:39.107Z,2.72
2019-06-07T11:25:09.210Z,3.30
2019-06-07T11:27:38.787Z,3.15
2019-06-07T11:30:08.395Z,3.50
2019-06-07T11:32:37.323Z,3.33
2019-06-07T11:35:11.554Z,3.55
2019-06-07T11:37:40.270Z,3.33
2019-06-07T11:40:27.997Z,3.10
2019-06-07T11:42:41.244Z,4.25
2019-06-07T11:45:10.619Z,4.45
2019-06-07T11:47:39.583Z,3.95
2019-06-07T11:50:09.513Z,3.90
2019-06-07T11:52:39.286Z,3.47
2019-06-07T11:55:09.371Z,4.50
2019-06-07T11:57:38.523Z,4.22
2019-06-07T12:00:14.002Z,4.50
2019-06-07T12:02:43.419Z,4.27
2019-06-07T12:05:16.172Z,4.00
2019-06-07T12:07:43.143Z,4.33
2019-06-07T12:10:12.594Z,3.60
2019-06-07T12:12:41.395Z,3.90
2019-06-07T12:15:11.078Z,3.72
2019-06-07T12:17:39.858Z,3.92
2019-06-07T12:20:12.300Z,3.50
2019-06-07T12:22:39.639Z,3.60
2019-06-07T12:25:10.406Z,3.42
2019-06-07T12:27:39.486Z,3.65
2019-06-07T12:30:17.571Z,3.58
2019-06-07T12:32:39.369Z,3.87
2019-06-07T12:35:08.422Z,3.70
2019-06-07T12:37:44.479Z,3.80
2019-06-07T12:40:09.222Z,3.87
2019-06-07T12:42:38.352Z,4.33
2019-06-07T12:45:08.172Z,4.20
2019-06-07T12:47:37.263Z,4.13
2019-06-07T12:50:09.261Z,4.23
2019-06-07T12:52:37.975Z,4.00
2019-06-07T12:55:10.284Z,3.57
2019-06-07T12:57:38.870Z,4.10
2019-06-07T13:00:11.731Z,4.47
2019-06-07T13:02:40.651Z,3.90
2019-06-07T13:05:09.543Z,4.30
2019-06-07T13:07:38.275Z,4.20
2019-06-07T13:10:07.308Z,3.83
2019-06-07T13:12:35.882Z,3.87
2019-06-07T13:15:06.486Z,4.20
2019-06-07T13:17:35.503Z,4.00
2019-06-07T13:20:07.234Z,4.30
2019-06-07T13:22:35.890Z,4.70
2019-06-07T13:25:05.887Z,4.53
2019-06-07T13:27:34.561Z,3.90
2019-06-07T13:30:09.832Z,4.00
2019-06-07T13:32:34.593Z,4.13
2019-06-07T13:35:04.813Z,4.40
2019-06-07T13:37:33.415Z,4.07
2019-06-07T13:40:02.313Z,4.40
2019-06-07T13:42:31.176Z,4.47
2019-06-07T13:44:59.902Z,5.00
2019-06-07T13:47:28.871Z,3.90
2019-06-07T13:49:58.393Z,4.00
2019-06-07T13:52:27.204Z,4.60
2019-06-07T13:54:56.139Z,4.40
2019-06-07T13:57:26.007Z,4.20
2019-06-07T13:59:54.675Z,4.53
2019-06-07T14:02:24.015Z,4.53
2019-06-07T14:04:53.563Z,4.60
2019-06-07T14:07:23.656Z,4.43
2019-06-07T14:09:52.885Z,4.97
2019-06-07T14:12:22.207Z,4.87
2019-06-07T14:14:51.683Z,4.50
2019-06-07T14:17:21.136Z,4.80
2019-06-07T14:19:49.843Z,4.50
2019-06-07T14:22:20.545Z,4.70
2019-06-07T14:24:49.167Z,4.60
2019-06-07T14:27:17.799Z,4.78
2019-06-07T14:29:46.491Z,4.85
2019-06-07T14:32:15.195Z,5.05
2019-06-07T14:34:44.211Z,5.00
2019-06-07T14:37:12.771Z,4.40
2019-06-07T14:39:41.503Z,5.12
2019-06-07T14:42:10.666Z,4.67
2019-06-07T14:44:39.372Z,4.80
2019-06-07T14:47:08.253Z,4.40
2019-06-07T14:49:36.849Z,4.42
2019-06-07T14:52:05.694Z,4.75
2019-06-07T14:54:38.889Z,4.50
2019-06-07T14:57:05.669Z,4.62
2019-06-07T14:59:34.902Z,4.35
2019-06-07T15:02:03.822Z,4.90
2019-06-07T15:04:32.912Z,5.00
2019-06-07T15:07:01.536Z,5.00
2019-06-07T15:09:31.041Z,4.90
2019-06-07T15:11:59.654Z,4.50
2019-06-07T15:14:29.294Z,4.60
2019-06-07T15:16:57.917Z,5.17
2019-06-07T15:19:26.768Z,4.75
2019-06-07T15:21:55.507Z,4.97
2019-06-07T15:24:24.238Z,4.85
2019-06-07T15:26:53.268Z,5.00
2019-06-07T15:29:21.826Z,4.90
2019-06-07T15:31:50.426Z,4.80
2019-06-07T15:34:18.983Z,4.80
2019-06-07T15:36:48.006Z,5.15
2019-06-07T15:39:16.559Z,4.92
2019-06-07T15:41:45.147Z,5.00
2019-06-07T15:44:13.800Z,5.40
2019-06-07T15:46:42.375Z,5.70
2019-06-07T15:49:10.936Z,5.20
2019-06-07T15:51:40.815Z,5.47
2019-06-07T15:54:09.733Z,5.47
2019-06-07T15:56:39.121Z,5.90
2019-06-07T15:59:07.720Z,5.20
2019-06-07T16:01:37.661Z,5.42
2019-06-07T16:04:06.452Z,5.65
2019-06-07T16:06:36.183Z,5.50
2019-06-07T16:09:07.402Z,4.62
2019-06-07T16:11:37.125Z,4.80
2019-06-07T16:14:06.436Z,4.12
2019-06-07T16:16:35.223Z,3.47
2019-06-07T16:19:04.163Z,4.00
2019-06-07T16:21:33.239Z,3.90
2019-06-07T16:24:02.068Z,4.60
2019-06-07T16:26:30.992Z,4.27
2019-06-07T16:28:59.703Z,4.63
2019-06-07T16:31:28.352Z,6.53
2019-06-07T16:33:56.911Z,5.10
2019-06-07T16:36:25.568Z,4.27
2019-06-07T16:38:54.123Z,3.73
2019-06-07T16:41:23.075Z,4.67
2019-06-07T16:43:51.635Z,4.83
2019-06-07T16:46:20.342Z,4.20
2019-06-07T16:48:49.175Z,4.50
2019-06-07T16:51:17.902Z,4.33
2019-06-07T16:53:46.525Z,4.30
2019-06-07T16:56:15.111Z,4.33
2019-06-07T16:58:44.430Z,4.40
2019-06-07T17:01:14.256Z,4.57
2019-06-07T17:03:43.577Z,4.27
2019-06-07T17:06:12.377Z,2.77
2019-06-07T17:08:42.171Z,2.30
2019-06-07T17:11:10.946Z,2.00
2019-06-07T17:13:40.304Z,1.60
2019-06-07T17:16:10.583Z,1.83
2019-06-07T17:18:39.253Z,1.60
2019-06-07T17:21:07.877Z,1.93
2019-06-07T17:23:36.559Z,1.57
2019-06-07T17:26:05.746Z,1.93
2019-06-07T17:28:34.423Z,1.30
2019-06-07T17:31:03.103Z,1.60
2019-06-07T17:33:31.769Z,1.20
2019-06-07T17:36:00.418Z,1.10
2019-06-07T17:38:29.347Z,0.90
2019-06-07T17:40:57.907Z,1.40
2019-06-07T17:43:26.699Z,1.30
2019-06-07T17:45:55.722Z,1.20
2019-06-07T17:48:24.735Z,1.10
2019-06-07T17:50:53.801Z,1.10
2019-06-07T17:53:22.358Z,1.10
2019-06-07T17:55:52.369Z,0.90
2019-06-07T17:58:21.139Z,1.17
2019-06-07T18:00:52.892Z,1.10
2019-06-07T18:03:21.843Z,1.30
2019-06-07T18:05:51.371Z,1.00
2019-06-07T18:08:20.371Z,1.10
2019-06-07T18:10:50.055Z,1.17
2019-06-07T18:13:18.794Z,1.10
2019-06-07T18:15:52.905Z,1.43
2019-06-07T18:18:19.195Z,1.50
2019-06-07T18:20:49.107Z,1.70
2019-06-07T18:23:18.345Z,1.10
2019-06-07T18:25:46.931Z,1.57
2019-06-07T18:28:15.847Z,1.27
2019-06-07T18:30:44.571Z,1.40
2019-06-07T18:33:13.141Z,1.20
2019-06-07T18:35:41.720Z,1.00
2019-06-07T18:38:11.057Z,0.77
2019-06-07T18:40:40.922Z,0.70
2019-06-07T18:43:09.687Z,0.90
2019-06-07T18:45:38.713Z,0.93
2019-06-07T18:48:07.871Z,1.10
2019-06-07T18:50:36.758Z,0.90
2019-06-07T18:53:05.690Z,0.80
2019-06-07T18:55:34.772Z,0.97
2019-06-07T18:58:03.412Z,0.90
2019-06-07T19:00:32.711Z,1.00
2019-06-07T19:03:01.977Z,1.00
2019-06-07T19:05:30.788Z,1.10
2019-06-07T19:07:59.997Z,1.10
2019-06-07T19:10:28.864Z,1.10
2019-06-07T19:12:57.528Z,1.30
2019-06-07T19:15:27.074Z,2.93
2019-06-07T19:17:56.146Z,2.30
2019-06-07T19:20:25.202Z,1.97
2019-06-07T19:22:54.166Z,1.47
2019-06-07T19:25:22.888Z,1.80
2019-06-07T19:27:52.734Z,2.40
2019-06-07T19:30:21.702Z,2.00
2019-06-07T19:32:51.365Z,1.93
2019-06-07T19:35:20.569Z,2.33
2019-06-07T19:37:49.596Z,2.17
2019-06-07T19:40:19.315Z,2.60
2019-06-07T19:42:48.276Z,1.60
2019-06-07T19:45:37.877Z,1.30
2019-06-07T19:48:06.681Z,1.40
2019-06-07T19:50:35.412Z,1.00
2019-06-07T19:53:04.863Z,1.40
2019-06-07T19:55:33.903Z,2.03
2019-06-07T19:58:03.770Z,1.90
2019-06-07T20:00:32.755Z,1.80
2019-06-07T20:03:02.226Z,1.20
2019-06-07T20:05:33.854Z,1.40
2019-06-07T20:08:02.818Z,1.10
2019-06-07T20:10:31.615Z,1.30
2019-06-07T20:13:00.829Z,1.43
2019-06-07T20:15:29.868Z,1.37
2019-06-07T20:17:59.269Z,1.33
2019-06-07T20:20:29.994Z,1.53
2019-06-07T20:22:59.143Z,1.43
2019-06-07T20:25:27.773Z,1.33
2019-06-07T20:27:57.123Z,1.40
2019-06-07T20:30:25.852Z,1.40
2019-06-07T20:32:54.604Z,1.57
2019-06-07T20:35:23.321Z,1.90
2019-06-07T20:37:52.060Z,1.80
2019-06-07T20:40:24.732Z,2.20
2019-06-07T20:42:51.165Z,2.30
2019-06-07T20:45:32.325Z,2.43
2019-06-07T20:47:50.227Z,1.47
2019-06-07T20:50:18.926Z,1.47
2019-06-07T20:52:48.048Z,1.13
2019-06-07T20:55:17.147Z,1.23
2019-06-07T20:57:45.842Z,2.00
2019-06-07T21:00:21.250Z,1.50
2019-06-07T21:02:44.970Z,1.30
2019-06-07T21:05:14.195Z,1.27
2019-06-07T21:07:42.883Z,1.30
2019-06-07T21:10:12.122Z,1.40
2019-06-07T21:12:41.123Z,1.77
2019-06-07T21:15:12.895Z,1.40
2019-06-07T21:17:40.527Z,1.77
2019-06-07T21:20:13.626Z,1.90
2019-06-07T21:22:40.207Z,2.10
2019-06-07T21:25:10.186Z,1.70
2019-06-07T21:27:40.066Z,1.70
2019-06-07T21:30:09.863Z,1.40
2019-06-07T21:32:38.651Z,1.87
2019-06-07T21:35:08.190Z,1.80
2019-06-07T21:37:37.183Z,1.40
2019-06-07T21:40:08.036Z,1.30
2019-06-07T21:42:37.217Z,1.30
2019-06-07T21:45:07.833Z,1.17
2019-06-07T21:47:39.909Z,1.20
2019-06-07T21:50:10.934Z,1.30
2019-06-07T21:52:39.848Z,1.90
2019-06-07T21:55:09.366Z,1.37
2019-06-07T21:57:38.634Z,1.63
2019-06-07T22:00:15.620Z,2.00
2019-06-07T22:02:44.275Z,1.93
2019-06-07T22:05:13.880Z,2.20
2019-06-07T22:07:42.912Z,2.27
2019-06-07T22:10:12.507Z,1.73
2019-06-07T22:12:41.327Z,2.50
2019-06-07T22:15:29.062Z,3.63
2019-06-07T22:17:41.153Z,2.90
2019-06-07T22:20:10.770Z,2.20
2019-06-07T22:22:39.475Z,2.10
2019-06-07T22:25:09.348Z,2.70
2019-06-07T22:27:37.991Z,2.73
2019-06-07T22:30:10.500Z,2.40
2019-06-07T22:32:39.169Z,2.60
2019-06-07T22:35:08.972Z,2.60
2019-06-07T22:37:38.295Z,2.30
2019-06-07T22:40:10.950Z,3.03
2019-06-07T22:42:39.962Z,2.20
2019-06-07T22:45:10.942Z,1.63
2019-06-07T22:47:39.654Z,1.60
2019-06-07T22:50:10.799Z,1.27
2019-06-07T22:52:39.688Z,1.53
2019-06-07T22:55:10.115Z,2.00
2019-06-07T22:57:58.731Z,1.50
2019-06-07T23:00:35.833Z,1.47
2019-06-07T23:03:04.842Z,1.10
2019-06-07T23:05:33.758Z,1.10
2019-06-07T23:08:02.352Z,1.13
2019-06-07T23:10:30.938Z,1.13
2019-06-07T23:12:59.927Z,1.20
2019-06-07T23:15:29.786Z,1.50
2019-06-07T23:17:58.719Z,1.43
2019-06-07T23:20:27.382Z,1.73
2019-06-07T23:22:55.963Z,1.20
2019-06-07T23:25:24.903Z,1.10
2019-06-07T23:27:53.654Z,1.40
2019-06-07T23:30:22.756Z,0.80
2019-06-07T23:32:51.652Z,0.97
2019-06-07T23:35:21.208Z,0.90
2019-06-07T23:37:50.096Z,1.27
2019-06-07T23:40:19.674Z,1.47
2019-06-07T23:42:48.846Z,1.10
2019-06-07T23:45:17.627Z,1.20
2019-06-07T23:47:46.731Z,1.30
2019-06-07T23:50:15.865Z,1.13
2019-06-07T23:52:44.759Z,1.00
2019-06-07T23:55:16.196Z,1.00
2019-06-07T23:57:44.824Z,1.00
